Time,TemperatureF,DewpointF,PressureIn,WindDirection,WindDirectionDegrees,WindSpeedMPH,WindSpeedGustMPH,Humidity,HourlyPrecipIn,Conditions,Clouds,dailyrainin,SoftwareType,DateUTC
2013-01-08 00:03:00,31.1,21.4,30.15,South,180,0.0,0.0,67,0.00,,,0.00,WUHU21623XXSP,2013-01-08 06:03:00,
2013-01-08 00:08:00,31.6,21.9,30.15,South,180,0.0,0.0,67,0.00,,,0.00,WUHU21623XXSP,2013-01-08 06:08:00,
2013-01-08 00:13:00,32.0,22.3,30.15,South,180,0.0,0.0,67,0.00,,,0.00,WUHU21623XXSP,2013-01-08 06:13:00,
2013-01-08 00:18:00,32.4,22.6,30.16,South,180,0.0,0.0,67,0.00,,,0.00,WUHU21623XXSP,2013-01-08 06:18:00,
2013-01-08 00:23:00,32.4,22.2,30.15,South,180,0.0,0.0,66,0.00,,,0.00,WUHU21623XXSP,2013-01-08 06:23:00,
2013-01-08 00:28:00,32.2,22.1,30.15,South,180,0.0,0.0,66,0.00,,,0.00,WUHU21623XXSP,2013-01-08 06:28:00,
2013-01-08 00:33:00,31.8,21.7,30.15,South,180,0.0,0.0,66,0.00,,,0.00,WUHU21623XXSP,2013-01-08 06:33:00,
2013-01-08 00:38:00,31.6,21.6,30.15,South,180,0.0,0.0,66,0.00,,,0.00,WUHU21623XXSP,2013-01-08 06:38:00,
2013-01-08 00:43:00,31.3,21.2,30.15,South,180,0.0,0.0,66,0.00,,,0.00,WUHU21623XXSP,2013-01-08 06:43:00,
2013-01-08 00:48:00,30.9,21.2,30.15,South,180,0.0,0.0,67,0.00,,,0.00,WUHU21623XXSP,2013-01-08 06:48:00,
2013-01-08 00:53:00,30.9,21.2,30.15,South,180,0.0,0.0,67,0.00,,,0.00,WUHU21623XXSP,2013-01-08 06:53:00,
2013-01-08 00:58:00,30.9,21.2,30.15,South,180,0.0,0.0,67,0.00,,,0.00,WUHU21623XXSP,2013-01-08 06:58:00,
2013-01-08 01:03:00,30.9,21.2,30.16,South,180,0.0,0.0,67,0.00,,,0.00,WUHU21623XXSP,2013-01-08 07:03:00,
2013-01-08 01:08:00,30.9,21.6,30.16,SSW,202,0.0,0.0,68,0.00,,,0.00,WUHU21623XXSP,2013-01-08 07:08:00,
2013-01-08 01:13:00,30.9,21.6,30.16,SSW,202,0.0,0.0,68,0.00,,,0.00,WUHU21623XXSP,2013-01-08 07:13:00,
2013-01-08 01:18:00,31.3,22.3,30.16,South,180,0.0,0.0,69,0.00,,,0.00,WUHU21623XXSP,2013-01-08 07:18:00,
2013-01-08 01:23:00,32.5,23.5,30.16,SSW,202,0.0,0.0,69,0.00,,,0.00,WUHU21623XXSP,2013-01-08 07:23:00,
2013-01-08 01:28:00,34.0,24.4,30.16,SSW,202,0.0,2.2,68,0.00,,,0.00,WUHU21623XXSP,2013-01-08 07:28:00,
2013-01-08 01:33:00,34.9,25.0,30.16,South,180,0.0,2.7,67,0.00,,,0.00,WUHU21623XXSP,2013-01-08 07:33:00,
2013-01-08 01:38:00,35.4,25.2,30.16,South,180,0.0,2.7,66,0.00,,,0.00,WUHU21623XXSP,2013-01-08 07:38:00,
2013-01-08 01:43:00,36.1,25.5,30.16,South,180,0.0,3.4,65,0.00,,,0.00,WUHU21623XXSP,2013-01-08 07:43:00,
2013-01-08 01:48:00,36.7,25.6,30.15,SSW,202,0.0,3.4,64,0.00,,,0.00,WUHU21623XXSP,2013-01-08 07:48:00,
2013-01-08 01:53:00,37.0,25.6,30.16,SSW,202,0.0,2.7,63,0.00,,,0.00,WUHU21623XXSP,2013-01-08 07:53:00,
2013-01-08 01:58:00,37.2,25.4,30.17,SSW,202,0.0,0.0,62,0.00,,,0.00,WUHU21623XXSP,2013-01-08 07:58:00,
2013-01-08 02:03:00,37.2,25.4,30.16,SSW,202,0.0,0.0,62,0.00,,,0.00,WUHU21623XXSP,2013-01-08 08:03:00,
2013-01-08 02:08:00,37.2,25.4,30.16,SSW,202,0.0,0.0,62,0.00,,,0.00,WUHU21623XXSP,2013-01-08 08:08:00,
2013-01-08 02:13:00,37.0,25.2,30.16,SSW,202,0.0,0.0,62,0.00,,,0.00,WUHU21623XXSP,2013-01-08 08:13:00,
2013-01-08 02:18:00,36.7,24.9,30.16,SSW,202,0.0,0.0,62,0.00,,,0.00,WUHU21623XXSP,2013-01-08 08:18:00,
2013-01-08 02:23:00,36.3,24.2,30.17,SSW,202,0.0,0.0,61,0.00,,,0.00,WUHU21623XXSP,2013-01-08 08:23:00,
2013-01-08 02:28:00,35.8,23.7,30.16,SSW,202,0.0,0.0,61,0.00,,,0.00,WUHU21623XXSP,2013-01-08 08:28:00,
2013-01-08 02:33:00,35.4,23.7,30.17,SSW,202,0.0,0.0,62,0.00,,,0.00,WUHU21623XXSP,2013-01-08 08:33:00,
2013-01-08 02:38:00,34.9,23.2,30.16,SSW,202,0.0,0.0,62,0.00,,,0.00,WUHU21623XXSP,2013-01-08 08:38:00,
2013-01-08 02:43:00,34.3,23.0,30.16,SSW,202,0.0,0.0,63,0.00,,,0.00,WUHU21623XXSP,2013-01-08 08:43:00,
2013-01-08 02:48:00,34.2,22.8,30.17,SSW,202,0.0,0.0,63,0.00,,,0.00,WUHU21623XXSP,2013-01-08 08:48:00,
2013-01-08 02:53:00,33.6,22.3,30.16,SSW,202,0.0,0.0,63,0.00,,,0.00,WUHU21623XXSP,2013-01-08 08:53:00,
2013-01-08 02:58:00,32.9,21.6,30.16,SSW,202,0.0,0.0,63,0.00,,,0.00,WUHU21623XXSP,2013-01-08 08:58:00,
2013-01-08 03:03:00,32.2,21.4,30.16,SSW,202,0.0,0.0,64,0.00,,,0.00,WUHU21623XXSP,2013-01-08 09:03:00,
2013-01-08 03:08:00,31.8,21.0,30.16,SSW,202,0.0,0.0,64,0.00,,,0.00,WUHU21623XXSP,2013-01-08 09:08:00,
2013-01-08 03:13:00,31.3,20.8,30.17,SSW,202,0.0,0.0,65,0.00,,,0.00,WUHU21623XXSP,2013-01-08 09:13:00,
2013-01-08 03:18:00,30.7,20.3,30.16,SSW,202,0.0,0.0,65,0.00,,,0.00,WUHU21623XXSP,2013-01-08 09:18:00,
2013-01-08 03:23:00,30.4,19.9,30.16,SSW,202,0.0,0.0,65,0.00,,,0.00,WUHU21623XXSP,2013-01-08 09:23:00,
2013-01-08 03:28:00,30.0,20.0,30.16,SSW,202,0.0,0.0,66,0.00,,,0.00,WUHU21623XXSP,2013-01-08 09:28:00,
2013-01-08 03:33:00,29.8,19.8,30.16,SSW,202,0.0,0.0,66,0.00,,,0.00,WUHU21623XXSP,2013-01-08 09:33:00,
2013-01-08 03:38:00,29.5,19.5,30.16,SSW,202,0.0,0.0,66,0.00,,,0.00,WUHU21623XXSP,2013-01-08 09:38:00,
2013-01-08 03:43:00,29.3,19.7,30.16,SSW,202,0.0,0.0,67,0.00,,,0.00,WUHU21623XXSP,2013-01-08 09:43:00,
2013-01-08 03:48:00,28.9,19.3,30.15,SSW,202,0.0,0.0,67,0.00,,,0.00,WUHU21623XXSP,2013-01-08 09:48:00,
2013-01-08 03:53:00,28.8,19.2,30.15,SSW,202,0.0,0.0,67,0.00,,,0.00,WUHU21623XXSP,2013-01-08 09:53:00,
2013-01-08 03:58:00,28.6,19.4,30.16,SSW,202,0.0,0.0,68,0.00,,,0.00,WUHU21623XXSP,2013-01-08 09:58:00,
2013-01-08 04:03:00,28.2,19.0,30.15,West,270,0.0,0.0,68,0.00,,,0.00,WUHU21623XXSP,2013-01-08 10:03:00,
2013-01-08 04:08:00,28.2,19.0,30.16,SSW,202,0.0,0.0,68,0.00,,,0.00,WUHU21623XXSP,2013-01-08 10:08:00,
2013-01-08 04:13:00,28.0,19.2,30.15,SSW,202,0.0,0.0,69,0.00,,,0.00,WUHU21623XXSP,2013-01-08 10:13:00,
2013-01-08 04:18:00,27.7,18.9,30.15,SSW,202,0.0,0.0,69,0.00,,,0.00,WUHU21623XXSP,2013-01-08 10:18:00,
2013-01-08 04:23:00,27.3,18.5,30.16,SSW,202,0.0,0.0,69,0.00,,,0.00,WUHU21623XXSP,2013-01-08 10:23:00,
2013-01-08 04:28:00,27.1,18.3,30.15,SSW,202,0.0,0.0,69,0.00,,,0.00,WUHU21623XXSP,2013-01-08 10:28:00,
2013-01-08 04:33:00,27.0,18.5,30.14,SSW,202,0.0,0.0,70,0.00,,,0.00,WUHU21623XXSP,2013-01-08 10:33:00,
2013-01-08 04:38:00,26.8,18.3,30.14,SSW,202,0.0,0.0,70,0.00,,,0.00,WUHU21623XXSP,2013-01-08 10:38:00,
2013-01-08 04:43:00,26.4,18.3,30.14,SSW,202,0.0,0.0,71,0.00,,,0.00,WUHU21623XXSP,2013-01-08 10:43:00,
2013-01-08 04:48:00,26.4,18.3,30.15,SSW,202,0.0,0.0,71,0.00,,,0.00,WUHU21623XXSP,2013-01-08 10:48:00,
2013-01-08 04:53:00,26.2,18.1,30.15,SSW,202,0.0,0.0,71,0.00,,,0.00,WUHU21623XXSP,2013-01-08 10:53:00,
2013-01-08 04:58:00,26.4,18.3,30.14,SSW,202,0.0,0.0,71,0.00,,,0.00,WUHU21623XXSP,2013-01-08 10:58:00,
2013-01-08 05:03:00,26.4,18.6,30.14,SSW,202,0.0,0.0,72,0.00,,,0.00,WUHU21623XXSP,2013-01-08 11:03:00,
2013-01-08 05:08:00,26.4,18.6,30.15,SSW,202,0.0,0.0,72,0.00,,,0.00,WUHU21623XXSP,2013-01-08 11:08:00,
2013-01-08 05:13:00,26.4,18.6,30.15,SSW,202,0.0,0.0,72,0.00,,,0.00,WUHU21623XXSP,2013-01-08 11:13:00,
2013-01-08 05:18:00,26.2,18.4,30.14,SSW,202,0.0,0.0,72,0.00,,,0.00,WUHU21623XXSP,2013-01-08 11:18:00,
2013-01-08 05:23:00,26.2,18.4,30.14,SSW,202,0.0,0.0,72,0.00,,,0.00,WUHU21623XXSP,2013-01-08 11:23:00,
2013-01-08 05:28:00,26.2,18.4,30.14,SSW,202,0.0,0.0,72,0.00,,,0.00,WUHU21623XXSP,2013-01-08 11:28:00,
2013-01-08 05:33:00,26.2,18.4,30.15,SSW,202,0.0,0.0,72,0.00,,,0.00,WUHU21623XXSP,2013-01-08 11:33:00,
2013-01-08 05:38:00,26.1,18.2,30.14,SSW,202,0.0,0.0,72,0.00,,,0.00,WUHU21623XXSP,2013-01-08 11:38:00,
2013-01-08 05:43:00,25.9,18.0,30.14,SSW,202,0.0,0.0,72,0.00,,,0.00,WUHU21623XXSP,2013-01-08 11:43:00,
2013-01-08 05:48:00,26.1,18.5,30.15,SSW,202,0.0,0.0,73,0.00,,,0.00,WUHU21623XXSP,2013-01-08 11:48:00,
2013-01-08 05:53:00,26.4,18.9,30.15,SSW,202,0.0,0.0,73,0.00,,,0.00,WUHU21623XXSP,2013-01-08 11:53:00,
2013-01-08 05:58:00,26.4,18.9,30.15,SSW,202,0.0,0.0,73,0.00,,,0.00,WUHU21623XXSP,2013-01-08 11:58:00,
2013-01-08 06:03:00,26.4,18.9,30.15,SSW,202,0.0,0.0,73,0.00,,,0.00,WUHU21623XXSP,2013-01-08 12:03:00,
2013-01-08 06:08:00,26.4,18.9,30.15,SSW,202,0.0,0.0,73,0.00,,,0.00,WUHU21623XXSP,2013-01-08 12:08:00,
2013-01-08 06:13:00,26.4,19.2,30.15,SSW,202,0.0,0.0,74,0.00,,,0.00,WUHU21623XXSP,2013-01-08 12:13:00,
2013-01-08 06:18:00,26.4,19.2,30.15,SSW,202,0.0,0.0,74,0.00,,,0.00,WUHU21623XXSP,2013-01-08 12:18:00,
2013-01-08 06:23:00,26.2,19.0,30.15,SSW,202,0.0,0.0,74,0.00,,,0.00,WUHU21623XXSP,2013-01-08 12:23:00,
2013-01-08 06:28:00,26.1,18.8,30.15,SSW,202,0.0,0.0,74,0.00,,,0.00,WUHU21623XXSP,2013-01-08 12:28:00,
2013-01-08 06:33:00,26.1,18.8,30.15,SSW,202,0.0,0.0,74,0.00,,,0.00,WUHU21623XXSP,2013-01-08 12:33:00,
2013-01-08 06:38:00,26.1,18.8,30.15,SSW,202,0.0,0.0,74,0.00,,,0.00,WUHU21623XXSP,2013-01-08 12:38:00,
2013-01-08 06:43:00,26.2,19.0,30.15,SSW,202,0.0,0.0,74,0.00,,,0.00,WUHU21623XXSP,2013-01-08 12:43:00,
2013-01-08 06:48:00,26.2,19.0,30.16,SSW,202,0.0,0.0,74,0.00,,,0.00,WUHU21623XXSP,2013-01-08 12:48:00,
2013-01-08 06:53:00,26.2,19.0,30.15,SSW,202,0.0,0.0,74,0.00,,,0.00,WUHU21623XXSP,2013-01-08 12:53:00,
2013-01-08 06:58:00,26.2,19.0,30.16,SSW,202,0.0,0.0,74,0.00,,,0.00,WUHU21623XXSP,2013-01-08 12:58:00,
2013-01-08 07:03:00,26.1,18.8,30.16,SSW,202,0.0,0.0,74,0.00,,,0.00,WUHU21623XXSP,2013-01-08 13:03:00,
2013-01-08 07:08:00,26.1,19.1,30.16,SSW,202,0.0,0.0,75,0.00,,,0.00,WUHU21623XXSP,2013-01-08 13:08:00,
2013-01-08 07:13:00,26.2,19.3,30.16,SSW,202,0.0,0.0,75,0.00,,,0.00,WUHU21623XXSP,2013-01-08 13:13:00,
2013-01-08 07:18:00,26.4,19.5,30.17,SSW,202,0.0,0.0,75,0.00,,,0.00,WUHU21623XXSP,2013-01-08 13:18:00,
2013-01-08 07:23:00,26.4,19.8,30.17,SSW,202,0.0,0.0,76,0.00,,,0.00,WUHU21623XXSP,2013-01-08 13:23:00,
2013-01-08 07:28:00,26.8,20.2,30.17,SSW,202,0.0,0.0,76,0.00,,,0.00,WUHU21623XXSP,2013-01-08 13:28:00,
2013-01-08 07:33:00,27.0,20.3,30.16,SSW,202,0.0,0.0,76,0.00,,,0.00,WUHU21623XXSP,2013-01-08 13:33:00,
2013-01-08 07:38:00,27.1,20.5,30.17,SSW,202,0.0,0.0,76,0.00,,,0.00,WUHU21623XXSP,2013-01-08 13:38:00,
2013-01-08 07:43:00,27.1,20.5,30.17,SSW,202,0.0,0.0,76,0.00,,,0.00,WUHU21623XXSP,2013-01-08 13:43:00,
2013-01-08 07:48:00,27.3,20.7,30.17,SSW,202,0.0,0.0,76,0.00,,,0.00,WUHU21623XXSP,2013-01-08 13:48:00,
2013-01-08 07:53:00,27.3,20.7,30.17,SSW,202,0.0,0.0,76,0.00,,,0.00,WUHU21623XXSP,2013-01-08 13:53:00,
2013-01-08 07:58:00,27.7,21.4,30.18,SSW,202,0.0,0.0,77,0.00,,,0.00,WUHU21623XXSP,2013-01-08 13:58:00,
2013-01-08 08:03:00,28.0,21.7,30.18,SSW,202,0.0,0.0,77,0.00,,,0.00,WUHU21623XXSP,2013-01-08 14:03:00,
2013-01-08 08:08:00,28.6,22.2,30.18,SSW,202,0.0,0.0,77,0.00,,,0.00,WUHU21623XXSP,2013-01-08 14:08:00,
2013-01-08 08:13:00,28.9,22.6,30.18,SSW,202,0.0,0.0,77,0.00,,,0.00,WUHU21623XXSP,2013-01-08 14:13:00,
2013-01-08 08:18:00,29.1,22.8,30.18,SSW,202,0.0,0.0,77,0.00,,,0.00,WUHU21623XXSP,2013-01-08 14:18:00,
2013-01-08 08:23:00,29.3,22.9,30.18,SSW,202,0.0,0.0,77,0.00,,,0.00,WUHU21623XXSP,2013-01-08 14:23:00,
2013-01-08 08:28:00,29.5,22.8,30.18,SSW,202,0.0,0.0,76,0.00,,,0.00,WUHU21623XXSP,2013-01-08 14:28:00,
2013-01-08 08:33:00,29.8,23.5,30.18,SSW,202,0.0,0.0,77,0.00,,,0.00,WUHU21623XXSP,2013-01-08 14:33:00,
2013-01-08 08:38:00,30.4,24.0,30.18,SSW,202,0.0,0.0,77,0.00,,,0.00,WUHU21623XXSP,2013-01-08 14:38:00,
2013-01-08 08:43:00,31.3,24.9,30.19,SSW,202,0.0,0.0,77,0.00,,,0.00,WUHU21623XXSP,2013-01-08 14:43:00,
2013-01-08 08:48:00,32.4,26.0,30.18,SSW,202,0.0,0.0,77,0.00,,,0.00,WUHU21623XXSP,2013-01-08 14:48:00,
2013-01-08 08:53:00,33.3,26.4,30.18,SSW,202,0.0,0.0,76,0.00,,,0.00,WUHU21623XXSP,2013-01-08 14:53:00,
2013-01-08 08:58:00,34.3,27.5,30.18,SSW,202,0.0,0.0,76,0.00,,,0.00,WUHU21623XXSP,2013-01-08 14:58:00,
2013-01-08 09:03:00,35.4,28.5,30.18,SSW,202,0.0,0.0,76,0.00,,,0.00,WUHU21623XXSP,2013-01-08 15:03:00,
2013-01-08 09:08:00,36.3,29.1,30.17,SSW,202,0.0,0.0,75,0.00,,,0.00,WUHU21623XXSP,2013-01-08 15:08:00,
2013-01-08 09:13:00,37.2,30.0,30.17,SSW,202,0.0,0.0,75,0.00,,,0.00,WUHU21623XXSP,2013-01-08 15:13:00,
2013-01-08 09:18:00,38.5,30.9,30.18,SSW,202,0.0,0.0,74,0.00,,,0.00,WUHU21623XXSP,2013-01-08 15:18:00,
2013-01-08 09:23:00,39.9,31.9,30.18,SSW,202,0.0,0.0,73,0.00,,,0.00,WUHU21623XXSP,2013-01-08 15:23:00,
2013-01-08 09:28:00,41.0,32.6,30.18,SSW,202,0.0,0.0,72,0.00,,,0.00,WUHU21623XXSP,2013-01-08 15:28:00,
2013-01-08 09:39:00,42.6,33.6,30.18,SSW,202,0.0,0.0,70,0.00,,,0.00,WUHU21623XXSP,2013-01-08 15:39:00,
2013-01-08 09:44:00,43.5,34.4,30.18,SSW,202,0.0,0.0,70,0.00,,,0.00,WUHU21623XXSP,2013-01-08 15:44:00,
2013-01-08 09:49:00,44.4,34.5,30.18,SSW,202,0.0,0.0,68,0.00,,,0.00,WUHU21623XXSP,2013-01-08 15:49:00,
2013-01-08 09:54:00,46.0,35.7,30.18,SSW,202,0.0,0.0,67,0.00,,,0.00,WUHU21623XXSP,2013-01-08 15:54:00,
2013-01-08 09:59:00,48.0,36.8,30.17,SSW,202,0.0,0.0,65,0.00,,,0.00,WUHU21623XXSP,2013-01-08 15:59:00,
2013-01-08 10:04:00,50.2,38.0,30.18,SSW,202,0.0,0.0,63,0.00,,,0.00,WUHU21623XXSP,2013-01-08 16:04:00,
2013-01-08 10:09:00,52.0,38.0,30.17,SW,225,0.0,0.0,59,0.00,,,0.00,WUHU21623XXSP,2013-01-08 16:09:00,
2013-01-08 10:14:00,52.9,38.4,30.17,SSW,202,0.0,0.0,58,0.00,,,0.00,WUHU21623XXSP,2013-01-08 16:14:00,
2013-01-08 10:19:00,53.8,38.4,30.18,South,180,0.0,4.9,56,0.00,,,0.00,WUHU21623XXSP,2013-01-08 16:19:00,
2013-01-08 10:24:00,53.2,37.4,30.18,South,180,5.4,5.4,55,0.00,,,0.00,WUHU21623XXSP,2013-01-08 16:24:00,
2013-01-08 10:29:00,53.4,38.0,30.18,SSW,202,2.0,5.4,56,0.00,,,0.00,WUHU21623XXSP,2013-01-08 16:29:00,
2013-01-08 10:34:00,54.0,37.6,30.18,SSE,157,0.0,5.1,54,0.00,,,0.00,WUHU21623XXSP,2013-01-08 16:34:00,
2013-01-08 10:39:00,53.2,37.4,30.17,South,180,0.0,3.6,55,0.00,,,0.00,WUHU21623XXSP,2013-01-08 16:39:00,
2013-01-08 10:44:00,53.1,37.2,30.17,SSW,202,0.0,6.0,55,0.00,,,0.00,WUHU21623XXSP,2013-01-08 16:44:00,
2013-01-08 10:49:00,52.7,37.4,30.17,SW,225,0.0,6.0,56,0.00,,,0.00,WUHU21623XXSP,2013-01-08 16:49:00,
2013-01-08 10:54:00,53.2,37.9,30.17,SSW,202,0.0,7.4,56,0.00,,,0.00,WUHU21623XXSP,2013-01-08 16:54:00,
2013-01-08 10:59:00,53.4,37.6,30.16,SW,225,3.4,7.4,55,0.00,,,0.00,WUHU21623XXSP,2013-01-08 16:59:00,
2013-01-08 11:04:00,53.2,37.4,30.16,WSW,247,0.0,7.4,55,0.00,,,0.00,WUHU21623XXSP,2013-01-08 17:04:00,
2013-01-08 11:09:00,53.2,37.4,30.15,SSW,202,3.4,6.0,55,0.00,,,0.00,WUHU21623XXSP,2013-01-08 17:09:00,
2013-01-08 11:14:00,53.2,37.0,30.15,South,180,0.0,6.0,54,0.00,,,0.00,WUHU21623XXSP,2013-01-08 17:14:00,
2013-01-08 11:19:00,53.2,37.4,30.15,SW,225,1.6,5.8,55,0.00,,,0.00,WUHU21623XXSP,2013-01-08 17:19:00,
2013-01-08 11:24:00,53.2,37.0,30.15,South,180,0.0,8.5,54,0.00,,,0.00,WUHU21623XXSP,2013-01-08 17:24:00,
2013-01-08 11:29:00,53.4,37.1,30.14,WSW,247,0.0,8.5,54,0.00,,,0.00,WUHU21623XXSP,2013-01-08 17:29:00,
2013-01-08 11:34:00,53.4,37.1,30.14,SW,225,0.0,8.3,54,0.00,,,0.00,WUHU21623XXSP,2013-01-08 17:34:00,
2013-01-08 11:39:00,53.8,37.5,30.14,SSW,202,1.1,5.4,54,0.00,,,0.00,WUHU21623XXSP,2013-01-08 17:39:00,
2013-01-08 11:44:00,54.3,37.5,30.14,SSW,202,0.0,2.2,53,0.00,,,0.00,WUHU21623XXSP,2013-01-08 17:44:00,
2013-01-08 11:49:00,54.9,37.5,30.13,South,180,0.0,6.3,52,0.00,,,0.00,WUHU21623XXSP,2013-01-08 17:49:00,
2013-01-08 11:54:00,55.8,37.9,30.13,SE,135,0.0,7.2,51,0.00,,,0.00,WUHU21623XXSP,2013-01-08 17:54:00,
2013-01-08 11:59:00,56.8,38.5,30.13,SSE,157,0.0,7.2,50,0.00,,,0.00,WUHU21623XXSP,2013-01-08 17:59:00,
2013-01-08 12:04:00,57.9,38.9,30.12,South,180,0.0,6.7,49,0.00,,,0.00,WUHU21623XXSP,2013-01-08 18:04:00,
2013-01-08 12:09:00,58.6,39.0,30.12,SSE,157,0.0,6.7,48,0.00,,,0.00,WUHU21623XXSP,2013-01-08 18:09:00,
2013-01-08 12:14:00,59.4,39.6,30.11,SW,225,0.0,6.7,48,0.00,,,0.00,WUHU21623XXSP,2013-01-08 18:14:00,
2013-01-08 12:19:00,60.1,39.7,30.11,South,180,0.0,0.0,47,0.00,,,0.00,WUHU21623XXSP,2013-01-08 18:19:00,
2013-01-08 12:24:00,61.0,40.5,30.10,SSW,202,5.4,7.4,47,0.00,,,0.00,WUHU21623XXSP,2013-01-08 18:24:00,
2013-01-08 12:29:00,61.0,40.5,30.10,SE,135,0.0,7.4,47,0.00,,,0.00,WUHU21623XXSP,2013-01-08 18:29:00,
2013-01-08 12:34:00,61.0,40.5,30.10,South,180,4.3,12.3,47,0.00,,,0.00,WUHU21623XXSP,2013-01-08 18:34:00,
2013-01-08 12:39:00,61.0,41.1,30.10,SSW,202,0.0,12.3,48,0.00,,,0.00,WUHU21623XXSP,2013-01-08 18:39:00,
2013-01-08 12:44:00,61.2,41.3,30.10,SSE,157,0.0,10.7,48,0.00,,,0.00,WUHU21623XXSP,2013-01-08 18:44:00,
2013-01-08 12:49:00,60.1,40.3,30.10,SSE,157,4.5,10.3,48,0.00,,,0.00,WUHU21623XXSP,2013-01-08 18:49:00,
2013-01-08 12:54:00,59.4,40.2,30.09,SSW,202,0.0,10.3,49,0.00,,,0.00,WUHU21623XXSP,2013-01-08 18:54:00,
2013-01-08 12:59:00,58.8,40.8,30.09,SW,225,0.0,3.4,51,0.00,,,0.00,WUHU21623XXSP,2013-01-08 18:59:00,
2013-01-08 13:04:00,58.8,40.3,30.09,SSW,202,0.0,5.1,50,0.00,,,0.00,WUHU21623XXSP,2013-01-08 19:04:00,
2013-01-08 13:09:00,59.2,41.1,30.08,SSW,202,0.0,10.7,51,0.00,,,0.00,WUHU21623XXSP,2013-01-08 19:09:00,
2013-01-08 13:14:00,60.4,41.8,30.08,SSE,157,0.0,10.7,50,0.00,,,0.00,WUHU21623XXSP,2013-01-08 19:14:00,
2013-01-08 13:19:00,60.6,41.3,30.08,South,180,0.0,7.2,49,0.00,,,0.00,WUHU21623XXSP,2013-01-08 19:19:00,
2013-01-08 13:25:00,60.4,41.2,30.08,South,180,0.0,5.6,49,0.00,,,0.00,WUHU21623XXSP,2013-01-08 19:25:00,
2013-01-08 13:30:00,61.2,41.8,30.08,WSW,247,0.0,10.5,49,0.00,,,0.00,WUHU21623XXSP,2013-01-08 19:30:00,
2013-01-08 13:34:00,61.3,41.4,30.09,WSW,247,0.0,10.5,48,0.00,,,0.00,WUHU21623XXSP,2013-01-08 19:34:00,
2013-01-08 13:39:00,60.4,41.2,30.09,WSW,247,1.6,5.6,49,0.00,,,0.00,WUHU21623XXSP,2013-01-08 19:39:00,
2013-01-08 13:45:00,59.5,40.4,30.10,SSW,202,3.1,8.3,49,0.00,,,0.00,WUHU21623XXSP,2013-01-08 19:45:00,
2013-01-08 13:50:00,58.8,40.3,30.10,SW,225,0.0,8.3,50,0.00,,,0.00,WUHU21623XXSP,2013-01-08 19:50:00,
2013-01-08 13:55:00,58.6,40.1,30.11,SSW,202,0.0,8.3,50,0.00,,,0.00,WUHU21623XXSP,2013-01-08 19:55:00,
2013-01-08 14:00:00,57.9,39.5,30.11,SW,225,0.0,11.2,50,0.00,,,0.00,WUHU21623XXSP,2013-01-08 20:00:00,
2013-01-08 14:05:00,57.7,39.8,30.11,WSW,247,0.0,11.2,51,0.00,,,0.00,WUHU21623XXSP,2013-01-08 20:05:00,
2013-01-08 14:10:00,57.6,39.6,30.10,SSW,202,0.0,7.8,51,0.00,,,0.00,WUHU21623XXSP,2013-01-08 20:10:00,
2013-01-08 14:15:00,57.7,39.8,30.10,SSW,202,0.0,7.4,51,0.00,,,0.00,WUHU21623XXSP,2013-01-08 20:15:00,
2013-01-08 14:20:00,57.7,39.8,30.10,SSW,202,3.6,5.1,51,0.00,,,0.00,WUHU21623XXSP,2013-01-08 20:20:00,
2013-01-08 14:25:00,57.9,40.0,30.10,South,180,5.4,5.4,51,0.00,,,0.00,WUHU21623XXSP,2013-01-08 20:25:00,
2013-01-08 14:30:00,58.1,40.1,30.10,South,180,0.0,5.8,51,0.00,,,0.00,WUHU21623XXSP,2013-01-08 20:30:00,
2013-01-08 14:35:00,58.5,40.4,30.10,SSE,157,3.8,5.8,51,0.00,,,0.00,WUHU21623XXSP,2013-01-08 20:35:00,
2013-01-08 14:40:00,58.6,40.1,30.10,WSW,247,0.0,9.6,50,0.00,,,0.00,WUHU21623XXSP,2013-01-08 20:40:00,
2013-01-08 14:45:00,58.3,40.3,30.10,SSW,202,0.0,9.6,51,0.00,,,0.00,WUHU21623XXSP,2013-01-08 20:45:00,
2013-01-08 14:50:00,58.1,40.1,30.11,West,270,0.0,5.1,51,0.00,,,0.00,WUHU21623XXSP,2013-01-08 20:50:00,
2013-01-08 14:55:00,57.9,40.0,30.11,SW,225,0.0,5.1,51,0.00,,,0.00,WUHU21623XXSP,2013-01-08 20:55:00,
2013-01-08 15:00:00,57.6,39.6,30.11,South,180,0.0,5.1,51,0.00,,,0.00,WUHU21623XXSP,2013-01-08 21:00:00,
2013-01-08 15:05:00,57.4,39.9,30.11,South,180,0.0,4.9,52,0.00,,,0.00,WUHU21623XXSP,2013-01-08 21:05:00,
2013-01-08 15:10:00,56.8,39.4,30.11,SSW,202,0.0,9.8,52,0.00,,,0.00,WUHU21623XXSP,2013-01-08 21:10:00,
2013-01-08 15:15:00,56.3,39.3,30.11,SSW,202,0.0,9.8,53,0.00,,,0.00,WUHU21623XXSP,2013-01-08 21:15:00,
2013-01-08 15:20:00,55.9,39.0,30.11,SW,225,0.0,6.5,53,0.00,,,0.00,WUHU21623XXSP,2013-01-08 21:20:00,
2013-01-08 15:25:00,55.8,39.3,30.11,SSW,202,7.2,7.2,54,0.00,,,0.00,WUHU21623XXSP,2013-01-08 21:25:00,
2013-01-08 15:30:00,55.2,38.8,30.12,South,180,0.0,7.8,54,0.00,,,0.00,WUHU21623XXSP,2013-01-08 21:30:00,
2013-01-08 15:35:00,55.0,39.1,30.12,SSW,202,0.0,7.8,55,0.00,,,0.00,WUHU21623XXSP,2013-01-08 21:35:00,
2013-01-08 15:40:00,54.7,38.7,30.12,SSW,202,2.0,5.1,55,0.00,,,0.00,WUHU21623XXSP,2013-01-08 21:40:00,
2013-01-08 15:45:00,54.3,38.9,30.12,South,180,0.0,10.3,56,0.00,,,0.00,WUHU21623XXSP,2013-01-08 21:45:00,
2013-01-08 15:50:00,54.1,38.7,30.13,South,180,0.0,10.3,56,0.00,,,0.00,WUHU21623XXSP,2013-01-08 21:50:00,
2013-01-08 15:55:00,53.8,38.4,30.13,South,180,0.0,7.2,56,0.00,,,0.00,WUHU21623XXSP,2013-01-08 21:55:00,
2013-01-08 16:00:00,53.4,38.5,30.13,SSE,157,0.0,7.4,57,0.00,,,0.00,WUHU21623XXSP,2013-01-08 22:00:00,
2013-01-08 16:05:00,53.2,38.3,30.12,SSW,202,0.0,7.4,57,0.00,,,0.00,WUHU21623XXSP,2013-01-08 22:05:00,
2013-01-08 16:10:00,53.2,38.8,30.12,South,180,3.4,6.9,58,0.00,,,0.00,WUHU21623XXSP,2013-01-08 22:10:00,
2013-01-08 16:15:00,52.9,38.4,30.13,SSW,202,0.0,6.9,58,0.00,,,0.00,WUHU21623XXSP,2013-01-08 22:15:00,
2013-01-08 16:20:00,52.5,38.6,30.13,SSW,202,0.0,6.9,59,0.00,,,0.00,WUHU21623XXSP,2013-01-08 22:20:00,
2013-01-08 16:25:00,52.3,39.2,30.13,SSW,202,0.0,3.1,61,0.00,,,0.00,WUHU21623XXSP,2013-01-08 22:25:00,
2013-01-08 16:30:00,51.6,39.4,30.13,SSW,202,0.0,1.6,63,0.00,,,0.00,WUHU21623XXSP,2013-01-08 22:30:00,
2013-01-08 16:35:00,50.7,39.3,30.12,SSW,202,0.0,6.9,65,0.00,,,0.00,WUHU21623XXSP,2013-01-08 22:35:00,
2013-01-08 16:40:00,50.2,39.6,30.12,SSW,202,0.0,6.9,67,0.00,,,0.00,WUHU21623XXSP,2013-01-08 22:40:00,
2013-01-08 16:45:00,49.8,39.7,30.12,SSW,202,0.0,0.0,68,0.00,,,0.00,WUHU21623XXSP,2013-01-08 22:45:00,
2013-01-08 16:50:00,49.5,39.3,30.12,SSW,202,0.0,0.0,68,0.00,,,0.00,WUHU21623XXSP,2013-01-08 22:50:00,
2013-01-08 16:55:00,49.1,39.7,30.12,SSW,202,0.0,0.0,70,0.00,,,0.00,WUHU21623XXSP,2013-01-08 22:55:00,
2013-01-08 17:00:00,48.9,39.9,30.11,SSW,202,0.0,0.0,71,0.00,,,0.00,WUHU21623XXSP,2013-01-08 23:00:00,
2013-01-08 17:05:00,48.6,39.5,30.11,SSW,202,0.0,0.0,71,0.00,,,0.00,WUHU21623XXSP,2013-01-08 23:05:00,
2013-01-08 17:10:00,48.4,39.4,30.12,SSW,202,0.0,0.0,71,0.00,,,0.00,WUHU21623XXSP,2013-01-08 23:10:00,
2013-01-08 17:15:00,48.2,39.2,30.12,SSW,202,0.0,0.0,71,0.00,,,0.00,WUHU21623XXSP,2013-01-08 23:15:00,
2013-01-08 17:20:00,48.0,39.7,30.12,SSW,202,0.0,0.0,73,0.00,,,0.00,WUHU21623XXSP,2013-01-08 23:20:00,
2013-01-08 17:25:00,48.0,40.0,30.12,SSW,202,0.0,0.0,74,0.00,,,0.00,WUHU21623XXSP,2013-01-08 23:25:00,
2013-01-08 17:30:00,48.0,40.4,30.13,SSW,202,0.0,0.0,75,0.00,,,0.00,WUHU21623XXSP,2013-01-08 23:30:00,
2013-01-08 17:35:00,48.0,40.4,30.13,SSW,202,0.0,0.0,75,0.00,,,0.00,WUHU21623XXSP,2013-01-08 23:35:00,
2013-01-08 17:40:00,48.0,40.4,30.13,SSW,202,0.0,0.0,75,0.00,,,0.00,WUHU21623XXSP,2013-01-08 23:40:00,
2013-01-08 17:45:00,48.2,40.5,30.13,SSW,202,0.0,0.0,75,0.00,,,0.00,WUHU21623XXSP,2013-01-08 23:45:00,
2013-01-08 17:50:00,48.0,40.4,30.13,SSW,202,0.0,0.0,75,0.00,,,0.00,WUHU21623XXSP,2013-01-08 23:50:00,
2013-01-08 17:55:00,48.0,40.4,30.12,SSW,202,0.0,0.0,75,0.00,,,0.00,WUHU21623XXSP,2013-01-08 23:55:00,
2013-01-08 18:00:00,48.0,40.4,30.13,SSW,202,0.0,0.0,75,0.00,,,0.00,WUHU21623XXSP,2013-01-09 00:00:00,
2013-01-08 18:05:00,48.0,40.7,30.14,SSW,202,0.0,0.0,76,0.00,,,0.00,WUHU21623XXSP,2013-01-09 00:05:00,
2013-01-08 18:10:00,48.0,40.7,30.14,SSW,202,0.0,0.0,76,0.00,,,0.00,WUHU21623XXSP,2013-01-09 00:10:00,
2013-01-08 18:15:00,48.0,41.1,30.14,SSW,202,0.0,0.0,77,0.00,,,0.00,WUHU21623XXSP,2013-01-09 00:15:00,
2013-01-08 18:20:00,48.0,41.1,30.14,SSW,202,0.0,0.0,77,0.00,,,0.00,WUHU21623XXSP,2013-01-09 00:20:00,
2013-01-08 18:25:00,47.8,40.9,30.14,SSW,202,0.0,0.0,77,0.00,,,0.00,WUHU21623XXSP,2013-01-09 00:25:00,
2013-01-08 18:30:00,47.8,40.9,30.15,SSW,202,0.0,0.0,77,0.00,,,0.00,WUHU21623XXSP,2013-01-09 00:30:00,
2013-01-08 18:35:00,47.5,40.9,30.14,SSW,202,0.0,0.0,78,0.00,,,0.00,WUHU21623XXSP,2013-01-09 00:35:00,
2013-01-08 18:40:00,47.3,40.8,30.14,SSW,202,0.0,0.0,78,0.00,,,0.00,WUHU21623XXSP,2013-01-09 00:40:00,
2013-01-08 18:45:00,47.3,40.8,30.15,West,270,0.0,0.0,78,0.00,,,0.00,WUHU21623XXSP,2013-01-09 00:45:00,
2013-01-08 18:50:00,47.1,40.9,30.15,WNW,292,0.0,0.0,79,0.00,,,0.00,WUHU21623XXSP,2013-01-09 00:50:00,
2013-01-08 18:55:00,47.1,41.3,30.16,WNW,292,0.0,0.0,80,0.00,,,0.00,WUHU21623XXSP,2013-01-09 00:55:00,
2013-01-08 19:00:00,46.9,41.1,30.16,WNW,292,0.0,0.0,80,0.00,,,0.00,WUHU21623XXSP,2013-01-09 01:00:00,
2013-01-08 19:05:00,46.8,41.0,30.15,WNW,292,0.0,0.0,80,0.00,,,0.00,WUHU21623XXSP,2013-01-09 01:05:00,
2013-01-08 19:10:00,46.8,41.3,30.15,WNW,292,0.0,0.0,81,0.00,,,0.00,WUHU21623XXSP,2013-01-09 01:10:00,
2013-01-08 19:15:00,46.6,40.8,30.15,WNW,292,0.0,0.0,80,0.00,,,0.00,WUHU21623XXSP,2013-01-09 01:15:00,
2013-01-08 19:20:00,46.6,41.1,30.15,WNW,292,0.0,0.0,81,0.00,,,0.00,WUHU21623XXSP,2013-01-09 01:20:00,
2013-01-08 19:25:00,46.6,41.1,30.15,WNW,292,0.0,0.0,81,0.00,,,0.00,WUHU21623XXSP,2013-01-09 01:25:00,
2013-01-08 19:30:00,46.6,41.1,30.15,WNW,292,0.0,0.0,81,0.00,,,0.00,WUHU21623XXSP,2013-01-09 01:30:00,
2013-01-08 19:35:00,46.6,41.4,30.15,WNW,292,0.0,0.0,82,0.00,,,0.00,WUHU21623XXSP,2013-01-09 01:35:00,
2013-01-08 19:40:00,46.6,41.4,30.16,WNW,292,0.0,0.0,82,0.00,,,0.00,WUHU21623XXSP,2013-01-09 01:40:00,
2013-01-08 19:45:00,46.6,41.4,30.17,WNW,292,0.0,0.0,82,0.00,,,0.00,WUHU21623XXSP,2013-01-09 01:45:00,
2013-01-08 19:50:00,46.6,41.4,30.17,WNW,292,0.0,0.0,82,0.00,,,0.00,WUHU21623XXSP,2013-01-09 01:50:00,
2013-01-08 19:55:00,46.6,41.7,30.17,WNW,292,0.0,0.0,83,0.00,,,0.00,WUHU21623XXSP,2013-01-09 01:55:00,
2013-01-08 20:00:00,46.6,41.7,30.17,WNW,292,0.0,0.0,83,0.00,,,0.00,WUHU21623XXSP,2013-01-09 02:00:00,
2013-01-08 20:05:00,46.6,41.7,30.18,WNW,292,0.0,0.0,83,0.00,,,0.00,WUHU21623XXSP,2013-01-09 02:05:00,
2013-01-08 20:10:00,46.6,41.7,30.17,West,270,0.0,0.0,83,0.00,,,0.00,WUHU21623XXSP,2013-01-09 02:10:00,
2013-01-08 20:15:00,46.6,41.7,30.17,West,270,0.0,0.0,83,0.00,,,0.00,WUHU21623XXSP,2013-01-09 02:15:00,
2013-01-08 20:20:00,46.4,41.6,30.16,West,270,0.0,0.0,83,0.00,,,0.00,WUHU21623XXSP,2013-01-09 02:20:00,
2013-01-08 20:25:00,46.2,41.4,30.15,West,270,0.0,0.0,83,0.00,,,0.00,WUHU21623XXSP,2013-01-09 02:25:00,
2013-01-08 20:30:00,46.2,41.4,30.15,West,270,0.0,0.0,83,0.00,,,0.00,WUHU21623XXSP,2013-01-09 02:30:00,
2013-01-08 20:35:00,46.2,41.4,30.15,West,270,0.0,0.0,83,0.00,,,0.00,WUHU21623XXSP,2013-01-09 02:35:00,
2013-01-08 20:40:00,46.2,41.4,30.16,West,270,0.0,0.0,83,0.00,,,0.00,WUHU21623XXSP,2013-01-09 02:40:00,
2013-01-08 20:45:00,46.4,41.9,30.16,WSW,247,0.0,0.0,84,0.00,,,0.00,WUHU21623XXSP,2013-01-09 02:45:00,
2013-01-08 20:50:00,46.4,41.9,30.16,WSW,247,0.0,0.0,84,0.00,,,0.00,WUHU21623XXSP,2013-01-09 02:50:00,
2013-01-08 20:55:00,46.6,42.3,30.18,NNW,337,0.0,1.8,85,0.00,,,0.00,WUHU21623XXSP,2013-01-09 02:55:00,
2013-01-08 21:00:00,46.6,42.3,30.17,North,0,0.0,1.8,85,0.00,,,0.00,WUHU21623XXSP,2013-01-09 03:00:00,
2013-01-08 21:05:00,46.6,42.3,30.17,North,0,0.0,0.0,85,0.00,,,0.00,WUHU21623XXSP,2013-01-09 03:05:00,
2013-01-08 21:10:00,46.4,42.5,30.17,North,0,0.0,0.0,86,0.00,,,0.00,WUHU21623XXSP,2013-01-09 03:10:00,
2013-01-08 21:15:00,46.4,42.5,30.17,North,0,0.0,0.0,86,0.00,,,0.00,WUHU21623XXSP,2013-01-09 03:15:00,
2013-01-08 21:20:00,46.2,42.3,30.16,North,0,0.0,0.0,86,0.00,,,0.00,WUHU21623XXSP,2013-01-09 03:20:00,
2013-01-08 21:25:00,46.2,42.3,30.15,NNE,22,0.0,0.0,86,0.00,,,0.00,WUHU21623XXSP,2013-01-09 03:25:00,
2013-01-08 21:30:00,46.2,42.3,30.16,North,0,0.0,0.0,86,0.00,,,0.00,WUHU21623XXSP,2013-01-09 03:30:00,
2013-01-08 21:35:00,46.2,42.3,30.18,NNW,337,0.0,2.0,86,0.00,,,0.00,WUHU21623XXSP,2013-01-09 03:35:00,
2013-01-08 21:40:00,46.2,42.3,30.18,NW,315,0.0,2.0,86,0.00,,,0.00,WUHU21623XXSP,2013-01-09 03:40:00,
2013-01-08 21:45:00,46.2,42.3,30.17,NNW,337,0.0,0.0,86,0.00,,,0.00,WUHU21623XXSP,2013-01-09 03:45:00,
2013-01-08 21:50:00,46.2,42.6,30.18,NNW,337,0.0,0.0,87,0.00,,,0.00,WUHU21623XXSP,2013-01-09 03:50:00,
2013-01-08 21:55:00,46.2,42.6,30.18,North,0,0.0,1.6,87,0.00,,,0.00,WUHU21623XXSP,2013-01-09 03:55:00,
2013-01-08 22:00:00,46.0,42.4,30.18,North,0,0.0,1.6,87,0.00,,,0.00,WUHU21623XXSP,2013-01-09 04:00:00,
2013-01-08 22:05:00,46.0,42.4,30.18,North,0,0.0,0.0,87,0.00,,,0.00,WUHU21623XXSP,2013-01-09 04:05:00,
2013-01-08 22:10:00,46.0,42.4,30.18,North,0,0.0,0.0,87,0.00,,,0.00,WUHU21623XXSP,2013-01-09 04:10:00,
2013-01-08 22:15:00,46.0,42.4,30.18,NNE,22,0.0,0.0,87,0.00,,,0.00,WUHU21623XXSP,2013-01-09 04:15:00,
2013-01-08 22:20:00,46.0,42.4,30.19,NNE,22,0.0,0.0,87,0.00,,,0.00,WUHU21623XXSP,2013-01-09 04:20:00,
2013-01-08 22:25:00,46.0,42.4,30.20,NNE,22,0.0,0.0,87,0.00,,,0.00,WUHU21623XXSP,2013-01-09 04:25:00,
2013-01-08 22:30:00,46.2,42.6,30.20,North,0,0.0,0.0,87,0.00,,,0.00,WUHU21623XXSP,2013-01-09 04:30:00,
2013-01-08 22:35:00,46.2,42.6,30.21,North,0,0.0,0.0,87,0.00,,,0.00,WUHU21623XXSP,2013-01-09 04:35:00,
2013-01-08 22:40:00,46.2,42.6,30.21,North,0,0.0,0.0,87,0.00,,,0.00,WUHU21623XXSP,2013-01-09 04:40:00,
2013-01-08 22:45:00,46.2,42.6,30.21,North,0,0.0,0.0,87,0.00,,,0.00,WUHU21623XXSP,2013-01-09 04:45:00,
2013-01-08 22:50:00,46.2,42.6,30.21,NNE,22,0.0,0.0,87,0.00,,,0.00,WUHU21623XXSP,2013-01-09 04:50:00,
2013-01-08 22:55:00,46.2,42.6,30.22,NE,45,0.0,0.0,87,0.00,,,0.00,WUHU21623XXSP,2013-01-09 04:55:00,
2013-01-08 23:00:00,46.2,42.6,30.22,NE,45,0.0,0.0,87,0.00,,,0.00,WUHU21623XXSP,2013-01-09 05:00:00,
2013-01-08 23:03:00,46.2,42.6,30.22,NE,45,0.0,0.0,87,0.00,,,0.00,WUHU21623XXSP,2013-01-09 05:03:00,
2013-01-08 23:08:00,46.2,42.6,30.23,NNE,22,0.0,0.0,87,0.00,,,0.00,WUHU21623XXSP,2013-01-09 05:08:00,
2013-01-08 23:13:00,46.4,42.8,30.23,NNE,22,0.0,0.0,87,0.00,,,0.00,WUHU21623XXSP,2013-01-09 05:13:00,
2013-01-08 23:18:00,46.4,42.8,30.23,NNE,22,0.0,0.0,87,0.00,,,0.00,WUHU21623XXSP,2013-01-09 05:18:00,
2013-01-08 23:23:00,46.6,42.9,30.23,NE,45,0.0,0.0,87,0.00,,,0.00,WUHU21623XXSP,2013-01-09 05:23:00,
2013-01-08 23:28:00,46.6,42.9,30.23,NE,45,0.0,0.0,87,0.00,,,0.00,WUHU21623XXSP,2013-01-09 05:28:00,
2013-01-08 23:33:00,46.6,42.9,30.24,NE,45,0.0,0.0,87,0.00,,,0.00,WUHU21623XXSP,2013-01-09 05:33:00,
2013-01-08 23:38:00,46.6,42.9,30.24,NE,45,0.0,0.0,87,0.00,,,0.00,WUHU21623XXSP,2013-01-09 05:38:00,
2013-01-08 23:43:00,46.6,42.9,30.24,NE,45,0.0,0.0,87,0.00,,,0.00,WUHU21623XXSP,2013-01-09 05:43:00,
2013-01-08 23:48:00,46.4,42.8,30.24,NE,45,0.0,0.0,87,0.00,,,0.00,WUHU21623XXSP,2013-01-09 05:48:00,
2013-01-08 23:53:00,46.6,42.9,30.24,NE,45,0.0,0.0,87,0.00,,,0.00,WUHU21623XXSP,2013-01-09 05:53:00,
2013-01-08 23:58:00,46.4,42.8,30.24,NE,45,0.0,0.0,87,0.00,,,0.00,WUHU21623XXSP,2013-01-09 05:58:00,